<?xml version="1.0" encoding="UTF-8" standalone="no" ?>
<gpx xmlns="http://www.topografix.com/GPX/1/1" xmlns:xsi="http://www.w3.org/2001/XMLSchema-instance" xsi:schemaLocation="http://www.topografix.com/GPX/1/1 http://www.topografix.com/GPX/1/1/gpx.xsd" version="1.1" creator="VisuGPX - https://www.visugpx.com">
  <metadata>
    <name>lembras</name>
    <desc><![CDATA[temps soleil]]></desc>
  </metadata>
  <wpt lat="44.85829" lon="0.50388">
    <ele>30.89</ele>
    <name><![CDATA[MAISON]]></name>
  </wpt>
  <trk>
    <name><![CDATA[THENAC: 26 DEC 2013 14:01]]></name>
    <trkseg>
      <trkpt lat="44.75002" lon="0.34113">
        <ele>166.93</ele>
        <time>2013-12-26T13:01:33Z</time>
      </trkpt>
      <trkpt lat="44.75002" lon="0.34113">
        <ele>170.29</ele>
        <time>2013-12-26T13:01:38Z</time>
      </trkpt>
      <trkpt lat="44.74998" lon="0.3412">
        <ele>168.85</ele>
        <time>2013-12-26T13:01:51Z</time>
      </trkpt>
      <trkpt lat="44.75013" lon="0.34137">
        <ele>169.81</ele>
        <time>2013-12-26T13:02:09Z</time>
      </trkpt>
      <trkpt lat="44.75028" lon="0.34161">
        <ele>169.81</ele>
        <time>2013-12-26T13:03:00Z</time>
      </trkpt>
      <trkpt lat="44.75026" lon="0.34146">
        <ele>170.77</ele>
        <time>2013-12-26T13:03:25Z</time>
      </trkpt>
      <trkpt lat="44.75036" lon="0.3412">
        <ele>170.29</ele>
        <time>2013-12-26T13:03:43Z</time>
      </trkpt>
      <trkpt lat="44.75066" lon="0.34081">
        <ele>170.29</ele>
        <time>2013-12-26T13:04:18Z</time>
      </trkpt>
      <trkpt lat="44.75075" lon="0.34066">
        <ele>169.81</ele>
        <time>2013-12-26T13:04:32Z</time>
      </trkpt>
      <trkpt lat="44.75075" lon="0.3401">
        <ele>167.41</ele>
        <time>2013-12-26T13:05:05Z</time>
      </trkpt>
      <trkpt lat="44.75079" lon="0.33998">
        <ele>164.04</ele>
        <time>2013-12-26T13:05:18Z</time>
      </trkpt>
      <trkpt lat="44.75096" lon="0.33978">
        <ele>158.75</ele>
        <time>2013-12-26T13:05:40Z</time>
      </trkpt>
      <trkpt lat="44.75116" lon="0.33948">
        <ele>151.06</ele>
        <time>2013-12-26T13:06:08Z</time>
      </trkpt>
      <trkpt lat="44.7512" lon="0.33925">
        <ele>146.26</ele>
        <time>2013-12-26T13:06:26Z</time>
      </trkpt>
      <trkpt lat="44.75137" lon="0.33899">
        <ele>141.45</ele>
        <time>2013-12-26T13:07:02Z</time>
      </trkpt>
      <trkpt lat="44.75163" lon="0.33938">
        <ele>142.41</ele>
        <time>2013-12-26T13:07:55Z</time>
      </trkpt>
      <trkpt lat="44.75176" lon="0.33944">
        <ele>141.93</ele>
        <time>2013-12-26T13:08:08Z</time>
      </trkpt>
      <trkpt lat="44.75182" lon="0.33961">
        <ele>142.41</ele>
        <time>2013-12-26T13:08:22Z</time>
      </trkpt>
      <trkpt lat="44.75193" lon="0.33976">
        <ele>141.45</ele>
        <time>2013-12-26T13:08:40Z</time>
      </trkpt>
      <trkpt lat="44.75204" lon="0.34006">
        <ele>140.49</ele>
        <time>2013-12-26T13:09:05Z</time>
      </trkpt>
      <trkpt lat="44.75264" lon="0.34075">
        <ele>136.16</ele>
        <time>2013-12-26T13:10:14Z</time>
      </trkpt>
      <trkpt lat="44.75285" lon="0.34105">
        <ele>135.68</ele>
        <time>2013-12-26T13:10:40Z</time>
      </trkpt>
      <trkpt lat="44.75322" lon="0.34143">
        <ele>140.01</ele>
        <time>2013-12-26T13:11:22Z</time>
      </trkpt>
      <trkpt lat="44.75337" lon="0.34154">
        <ele>140.49</ele>
        <time>2013-12-26T13:11:34Z</time>
      </trkpt>
      <trkpt lat="44.7535" lon="0.34163">
        <ele>143.85</ele>
        <time>2013-12-26T13:11:51Z</time>
      </trkpt>
      <trkpt lat="44.75362" lon="0.34178">
        <ele>146.26</ele>
        <time>2013-12-26T13:12:07Z</time>
      </trkpt>
      <trkpt lat="44.75388" lon="0.34201">
        <ele>152.51</ele>
        <time>2013-12-26T13:12:46Z</time>
      </trkpt>
      <trkpt lat="44.75403" lon="0.34212">
        <ele>157.31</ele>
        <time>2013-12-26T13:13:18Z</time>
      </trkpt>
      <trkpt lat="44.75438" lon="0.34223">
        <ele>165.96</ele>
        <time>2013-12-26T13:14:00Z</time>
      </trkpt>
      <trkpt lat="44.75453" lon="0.34225">
        <ele>169.33</ele>
        <time>2013-12-26T13:14:15Z</time>
      </trkpt>
      <trkpt lat="44.75459" lon="0.34221">
        <ele>167.41</ele>
        <time>2013-12-26T13:14:21Z</time>
      </trkpt>
      <trkpt lat="44.75468" lon="0.34212">
        <ele>169.33</ele>
        <time>2013-12-26T13:14:33Z</time>
      </trkpt>
      <trkpt lat="44.75489" lon="0.34219">
        <ele>169.81</ele>
        <time>2013-12-26T13:14:56Z</time>
      </trkpt>
      <trkpt lat="44.75493" lon="0.34225">
        <ele>169.81</ele>
        <time>2013-12-26T13:15:06Z</time>
      </trkpt>
      <trkpt lat="44.75498" lon="0.34238">
        <ele>170.29</ele>
        <time>2013-12-26T13:15:30Z</time>
      </trkpt>
      <trkpt lat="44.75498" lon="0.34227">
        <ele>170.77</ele>
        <time>2013-12-26T13:15:48Z</time>
      </trkpt>
      <trkpt lat="44.75495" lon="0.34227">
        <ele>169.33</ele>
        <time>2013-12-26T13:17:15Z</time>
      </trkpt>
      <trkpt lat="44.75498" lon="0.34227">
        <ele>170.77</ele>
        <time>2013-12-26T13:17:34Z</time>
      </trkpt>
      <trkpt lat="44.75502" lon="0.34259">
        <ele>171.73</ele>
        <time>2013-12-26T13:18:33Z</time>
      </trkpt>
      <trkpt lat="44.75502" lon="0.34309">
        <ele>172.69</ele>
        <time>2013-12-26T13:19:01Z</time>
      </trkpt>
      <trkpt lat="44.75506" lon="0.34334">
        <ele>173.17</ele>
        <time>2013-12-26T13:19:20Z</time>
      </trkpt>
      <trkpt lat="44.7551" lon="0.34369">
        <ele>174.14</ele>
        <time>2013-12-26T13:19:49Z</time>
      </trkpt>
      <trkpt lat="44.75521" lon="0.34373">
        <ele>175.1</ele>
        <time>2013-12-26T13:20:00Z</time>
      </trkpt>
      <trkpt lat="44.75556" lon="0.34371">
        <ele>175.1</ele>
        <time>2013-12-26T13:20:28Z</time>
      </trkpt>
      <trkpt lat="44.75601" lon="0.34433">
        <ele>173.66</ele>
        <time>2013-12-26T13:21:20Z</time>
      </trkpt>
      <trkpt lat="44.75633" lon="0.34474">
        <ele>170.29</ele>
        <time>2013-12-26T13:21:53Z</time>
      </trkpt>
      <trkpt lat="44.75661" lon="0.34508">
        <ele>169.81</ele>
        <time>2013-12-26T13:22:23Z</time>
      </trkpt>
      <trkpt lat="44.75686" lon="0.3451">
        <ele>171.25</ele>
        <time>2013-12-26T13:22:43Z</time>
      </trkpt>
      <trkpt lat="44.75686" lon="0.34502">
        <ele>170.29</ele>
        <time>2013-12-26T13:22:54Z</time>
      </trkpt>
      <trkpt lat="44.75689" lon="0.34508">
        <ele>170.77</ele>
        <time>2013-12-26T13:23:01Z</time>
      </trkpt>
      <trkpt lat="44.75693" lon="0.3451">
        <ele>170.29</ele>
        <time>2013-12-26T13:23:04Z</time>
      </trkpt>
      <trkpt lat="44.75719" lon="0.34508">
        <ele>171.73</ele>
        <time>2013-12-26T13:23:22Z</time>
      </trkpt>
      <trkpt lat="44.75746" lon="0.34515">
        <ele>172.21</ele>
        <time>2013-12-26T13:23:42Z</time>
      </trkpt>
      <trkpt lat="44.7577" lon="0.34519">
        <ele>173.17</ele>
        <time>2013-12-26T13:24:02Z</time>
      </trkpt>
      <trkpt lat="44.75809" lon="0.34523">
        <ele>173.17</ele>
        <time>2013-12-26T13:24:33Z</time>
      </trkpt>
      <trkpt lat="44.75813" lon="0.34521">
        <ele>173.66</ele>
        <time>2013-12-26T13:24:37Z</time>
      </trkpt>
      <trkpt lat="44.75884" lon="0.34528">
        <ele>172.21</ele>
        <time>2013-12-26T13:25:30Z</time>
      </trkpt>
      <trkpt lat="44.75916" lon="0.34532">
        <ele>173.66</ele>
        <time>2013-12-26T13:25:53Z</time>
      </trkpt>
      <trkpt lat="44.76008" lon="0.34543">
        <ele>173.17</ele>
        <time>2013-12-26T13:27:01Z</time>
      </trkpt>
      <trkpt lat="44.76043" lon="0.34545">
        <ele>171.25</ele>
        <time>2013-12-26T13:28:55Z</time>
      </trkpt>
      <trkpt lat="44.76032" lon="0.3454">
        <ele>172.21</ele>
        <time>2013-12-26T13:29:55Z</time>
      </trkpt>
      <trkpt lat="44.76049" lon="0.34549">
        <ele>170.29</ele>
        <time>2013-12-26T13:30:10Z</time>
      </trkpt>
      <trkpt lat="44.76068" lon="0.34564">
        <ele>168.85</ele>
        <time>2013-12-26T13:30:27Z</time>
      </trkpt>
      <trkpt lat="44.76079" lon="0.34564">
        <ele>166.93</ele>
        <time>2013-12-26T13:30:42Z</time>
      </trkpt>
      <trkpt lat="44.76073" lon="0.34558">
        <ele>167.41</ele>
        <time>2013-12-26T13:31:35Z</time>
      </trkpt>
      <trkpt lat="44.76073" lon="0.34555">
        <ele>167.41</ele>
        <time>2013-12-26T13:33:00Z</time>
      </trkpt>
      <trkpt lat="44.76071" lon="0.34555">
        <ele>168.37</ele>
        <time>2013-12-26T13:33:15Z</time>
      </trkpt>
      <trkpt lat="44.76075" lon="0.34553">
        <ele>166.93</ele>
        <time>2013-12-26T13:33:27Z</time>
      </trkpt>
      <trkpt lat="44.76077" lon="0.34549">
        <ele>167.41</ele>
        <time>2013-12-26T13:34:02Z</time>
      </trkpt>
      <trkpt lat="44.76073" lon="0.34555">
        <ele>168.37</ele>
        <time>2013-12-26T13:34:18Z</time>
      </trkpt>
      <trkpt lat="44.76077" lon="0.34553">
        <ele>166.93</ele>
        <time>2013-12-26T13:34:39Z</time>
      </trkpt>
      <trkpt lat="44.76073" lon="0.34555">
        <ele>168.85</ele>
        <time>2013-12-26T13:35:28Z</time>
      </trkpt>
      <trkpt lat="44.76077" lon="0.34551">
        <ele>167.89</ele>
        <time>2013-12-26T13:36:02Z</time>
      </trkpt>
      <trkpt lat="44.76071" lon="0.34555">
        <ele>167.41</ele>
        <time>2013-12-26T13:36:34Z</time>
      </trkpt>
      <trkpt lat="44.76071" lon="0.3456">
        <ele>168.37</ele>
        <time>2013-12-26T13:38:45Z</time>
      </trkpt>
      <trkpt lat="44.76075" lon="0.34562">
        <ele>167.89</ele>
        <time>2013-12-26T13:39:09Z</time>
      </trkpt>
      <trkpt lat="44.76079" lon="0.34562">
        <ele>166.45</ele>
        <time>2013-12-26T13:39:19Z</time>
      </trkpt>
      <trkpt lat="44.76092" lon="0.34568">
        <ele>164.04</ele>
        <time>2013-12-26T13:39:35Z</time>
      </trkpt>
      <trkpt lat="44.76118" lon="0.34575">
        <ele>159.24</ele>
        <time>2013-12-26T13:40:02Z</time>
      </trkpt>
      <trkpt lat="44.76124" lon="0.34579">
        <ele>155.39</ele>
        <time>2013-12-26T13:40:15Z</time>
      </trkpt>
      <trkpt lat="44.76154" lon="0.34598">
        <ele>149.62</ele>
        <time>2013-12-26T13:40:42Z</time>
      </trkpt>
      <trkpt lat="44.76167" lon="0.34609">
        <ele>147.22</ele>
        <time>2013-12-26T13:40:56Z</time>
      </trkpt>
      <trkpt lat="44.7618" lon="0.34626">
        <ele>145.78</ele>
        <time>2013-12-26T13:41:13Z</time>
      </trkpt>
      <trkpt lat="44.76204" lon="0.3465">
        <ele>141.45</ele>
        <time>2013-12-26T13:41:37Z</time>
      </trkpt>
      <trkpt lat="44.76214" lon="0.34663">
        <ele>139.53</ele>
        <time>2013-12-26T13:41:50Z</time>
      </trkpt>
      <trkpt lat="44.76231" lon="0.34676">
        <ele>138.57</ele>
        <time>2013-12-26T13:42:06Z</time>
      </trkpt>
      <trkpt lat="44.76283" lon="0.3474">
        <ele>131.36</ele>
        <time>2013-12-26T13:43:06Z</time>
      </trkpt>
      <trkpt lat="44.763" lon="0.34755">
        <ele>129.92</ele>
        <time>2013-12-26T13:43:24Z</time>
      </trkpt>
      <trkpt lat="44.76304" lon="0.34753">
        <ele>132.32</ele>
        <time>2013-12-26T13:43:33Z</time>
      </trkpt>
      <trkpt lat="44.76328" lon="0.34706">
        <ele>129.43</ele>
        <time>2013-12-26T13:44:14Z</time>
      </trkpt>
      <trkpt lat="44.76341" lon="0.34658">
        <ele>129.92</ele>
        <time>2013-12-26T13:44:45Z</time>
      </trkpt>
      <trkpt lat="44.76347" lon="0.34643">
        <ele>128.95</ele>
        <time>2013-12-26T13:44:58Z</time>
      </trkpt>
      <trkpt lat="44.7636" lon="0.34622">
        <ele>129.92</ele>
        <time>2013-12-26T13:45:16Z</time>
      </trkpt>
      <trkpt lat="44.76379" lon="0.34598">
        <ele>127.51</ele>
        <time>2013-12-26T13:45:38Z</time>
      </trkpt>
      <trkpt lat="44.76392" lon="0.3454">
        <ele>127.03</ele>
        <time>2013-12-26T13:46:14Z</time>
      </trkpt>
      <trkpt lat="44.76405" lon="0.34508">
        <ele>128.47</ele>
        <time>2013-12-26T13:46:37Z</time>
      </trkpt>
      <trkpt lat="44.76433" lon="0.34468">
        <ele>129.92</ele>
        <time>2013-12-26T13:47:12Z</time>
      </trkpt>
      <trkpt lat="44.76461" lon="0.34437">
        <ele>129.92</ele>
        <time>2013-12-26T13:47:46Z</time>
      </trkpt>
      <trkpt lat="44.76467" lon="0.34433">
        <ele>129.92</ele>
        <time>2013-12-26T13:47:54Z</time>
      </trkpt>
      <trkpt lat="44.76472" lon="0.34412">
        <ele>130.4</ele>
        <time>2013-12-26T13:48:11Z</time>
      </trkpt>
      <trkpt lat="44.76472" lon="0.34395">
        <ele>131.84</ele>
        <time>2013-12-26T13:48:23Z</time>
      </trkpt>
      <trkpt lat="44.76476" lon="0.34382">
        <ele>130.88</ele>
        <time>2013-12-26T13:48:43Z</time>
      </trkpt>
      <trkpt lat="44.76467" lon="0.34369">
        <ele>131.36</ele>
        <time>2013-12-26T13:49:23Z</time>
      </trkpt>
      <trkpt lat="44.76482" lon="0.34326">
        <ele>131.84</ele>
        <time>2013-12-26T13:50:01Z</time>
      </trkpt>
      <trkpt lat="44.7648" lon="0.34311">
        <ele>132.32</ele>
        <time>2013-12-26T13:50:13Z</time>
      </trkpt>
      <trkpt lat="44.76482" lon="0.34296">
        <ele>132.8</ele>
        <time>2013-12-26T13:50:29Z</time>
      </trkpt>
      <trkpt lat="44.76487" lon="0.34272">
        <ele>134.24</ele>
        <time>2013-12-26T13:50:46Z</time>
      </trkpt>
      <trkpt lat="44.76493" lon="0.34262">
        <ele>133.76</ele>
        <time>2013-12-26T13:50:54Z</time>
      </trkpt>
      <trkpt lat="44.76498" lon="0.34251">
        <ele>133.28</ele>
        <time>2013-12-26T13:51:06Z</time>
      </trkpt>
      <trkpt lat="44.76502" lon="0.34199">
        <ele>133.76</ele>
        <time>2013-12-26T13:51:38Z</time>
      </trkpt>
      <trkpt lat="44.76508" lon="0.34159">
        <ele>131.84</ele>
        <time>2013-12-26T13:52:04Z</time>
      </trkpt>
      <trkpt lat="44.7651" lon="0.34133">
        <ele>131.36</ele>
        <time>2013-12-26T13:52:18Z</time>
      </trkpt>
      <trkpt lat="44.76506" lon="0.34113">
        <ele>129.92</ele>
        <time>2013-12-26T13:52:31Z</time>
      </trkpt>
      <trkpt lat="44.76517" lon="0.34118">
        <ele>129.92</ele>
        <time>2013-12-26T13:52:55Z</time>
      </trkpt>
      <trkpt lat="44.76532" lon="0.34128">
        <ele>128.47</ele>
        <time>2013-12-26T13:53:34Z</time>
      </trkpt>
      <trkpt lat="44.76551" lon="0.34131">
        <ele>127.03</ele>
        <time>2013-12-26T13:54:04Z</time>
      </trkpt>
      <trkpt lat="44.76555" lon="0.34122">
        <ele>128.47</ele>
        <time>2013-12-26T13:54:16Z</time>
      </trkpt>
      <trkpt lat="44.76577" lon="0.34128">
        <ele>127.51</ele>
        <time>2013-12-26T13:54:37Z</time>
      </trkpt>
      <trkpt lat="44.76592" lon="0.34131">
        <ele>127.03</ele>
        <time>2013-12-26T13:54:51Z</time>
      </trkpt>
      <trkpt lat="44.76618" lon="0.34124">
        <ele>125.11</ele>
        <time>2013-12-26T13:55:13Z</time>
      </trkpt>
      <trkpt lat="44.76624" lon="0.3412">
        <ele>125.59</ele>
        <time>2013-12-26T13:55:19Z</time>
      </trkpt>
      <trkpt lat="44.76622" lon="0.34109">
        <ele>126.55</ele>
        <time>2013-12-26T13:55:26Z</time>
      </trkpt>
      <trkpt lat="44.76624" lon="0.34088">
        <ele>125.59</ele>
        <time>2013-12-26T13:55:39Z</time>
      </trkpt>
      <trkpt lat="44.76626" lon="0.34062">
        <ele>126.55</ele>
        <time>2013-12-26T13:55:56Z</time>
      </trkpt>
      <trkpt lat="44.76626" lon="0.34043">
        <ele>125.59</ele>
        <time>2013-12-26T13:56:08Z</time>
      </trkpt>
      <trkpt lat="44.76628" lon="0.33995">
        <ele>123.19</ele>
        <time>2013-12-26T13:56:37Z</time>
      </trkpt>
      <trkpt lat="44.76637" lon="0.33974">
        <ele>122.71</ele>
        <time>2013-12-26T13:56:53Z</time>
      </trkpt>
      <trkpt lat="44.76658" lon="0.33938">
        <ele>123.19</ele>
        <time>2013-12-26T13:57:23Z</time>
      </trkpt>
      <trkpt lat="44.76661" lon="0.33914">
        <ele>122.71</ele>
        <time>2013-12-26T13:57:38Z</time>
      </trkpt>
      <trkpt lat="44.76654" lon="0.33903">
        <ele>122.71</ele>
        <time>2013-12-26T13:57:50Z</time>
      </trkpt>
      <trkpt lat="44.76648" lon="0.33888">
        <ele>124.63</ele>
        <time>2013-12-26T13:58:01Z</time>
      </trkpt>
      <trkpt lat="44.76646" lon="0.33873">
        <ele>126.55</ele>
        <time>2013-12-26T13:58:11Z</time>
      </trkpt>
      <trkpt lat="44.76648" lon="0.33867">
        <ele>126.55</ele>
        <time>2013-12-26T13:58:16Z</time>
      </trkpt>
      <trkpt lat="44.76639" lon="0.33845">
        <ele>129.43</ele>
        <time>2013-12-26T13:58:33Z</time>
      </trkpt>
      <trkpt lat="44.76637" lon="0.33839">
        <ele>128.95</ele>
        <time>2013-12-26T13:58:37Z</time>
      </trkpt>
      <trkpt lat="44.76637" lon="0.33835">
        <ele>125.11</ele>
        <time>2013-12-26T13:58:43Z</time>
      </trkpt>
      <trkpt lat="44.76635" lon="0.33832">
        <ele>129.92</ele>
        <time>2013-12-26T13:58:45Z</time>
      </trkpt>
      <trkpt lat="44.76626" lon="0.33811">
        <ele>132.8</ele>
        <time>2013-12-26T13:59:03Z</time>
      </trkpt>
      <trkpt lat="44.76622" lon="0.33794">
        <ele>133.28</ele>
        <time>2013-12-26T13:59:17Z</time>
      </trkpt>
      <trkpt lat="44.76611" lon="0.33719">
        <ele>138.57</ele>
        <time>2013-12-26T14:00:07Z</time>
      </trkpt>
      <trkpt lat="44.76607" lon="0.33697">
        <ele>140.01</ele>
        <time>2013-12-26T14:00:22Z</time>
      </trkpt>
      <trkpt lat="44.76601" lon="0.33693">
        <ele>140.49</ele>
        <time>2013-12-26T14:00:38Z</time>
      </trkpt>
      <trkpt lat="44.76585" lon="0.33697">
        <ele>140.97</ele>
        <time>2013-12-26T14:01:58Z</time>
      </trkpt>
      <trkpt lat="44.76575" lon="0.33706">
        <ele>141.45</ele>
        <time>2013-12-26T14:02:12Z</time>
      </trkpt>
      <trkpt lat="44.7656" lon="0.33708">
        <ele>142.41</ele>
        <time>2013-12-26T14:02:26Z</time>
      </trkpt>
      <trkpt lat="44.7654" lon="0.33716">
        <ele>142.89</ele>
        <time>2013-12-26T14:02:45Z</time>
      </trkpt>
      <trkpt lat="44.76528" lon="0.33729">
        <ele>143.85</ele>
        <time>2013-12-26T14:03:00Z</time>
      </trkpt>
      <trkpt lat="44.76478" lon="0.33759">
        <ele>141.93</ele>
        <time>2013-12-26T14:03:46Z</time>
      </trkpt>
      <trkpt lat="44.76431" lon="0.33742">
        <ele>143.85</ele>
        <time>2013-12-26T14:04:28Z</time>
      </trkpt>
      <trkpt lat="44.76418" lon="0.3374">
        <ele>142.41</ele>
        <time>2013-12-26T14:04:40Z</time>
      </trkpt>
      <trkpt lat="44.76379" lon="0.33727">
        <ele>142.41</ele>
        <time>2013-12-26T14:05:18Z</time>
      </trkpt>
      <trkpt lat="44.76358" lon="0.33723">
        <ele>143.37</ele>
        <time>2013-12-26T14:05:38Z</time>
      </trkpt>
      <trkpt lat="44.76352" lon="0.33727">
        <ele>143.85</ele>
        <time>2013-12-26T14:06:20Z</time>
      </trkpt>
      <trkpt lat="44.76358" lon="0.33725">
        <ele>142.89</ele>
        <time>2013-12-26T14:06:49Z</time>
      </trkpt>
      <trkpt lat="44.76356" lon="0.33723">
        <ele>142.89</ele>
        <time>2013-12-26T14:06:59Z</time>
      </trkpt>
      <trkpt lat="44.76339" lon="0.33721">
        <ele>144.82</ele>
        <time>2013-12-26T14:07:13Z</time>
      </trkpt>
      <trkpt lat="44.76324" lon="0.33725">
        <ele>147.22</ele>
        <time>2013-12-26T14:07:29Z</time>
      </trkpt>
      <trkpt lat="44.76309" lon="0.33734">
        <ele>149.62</ele>
        <time>2013-12-26T14:07:43Z</time>
      </trkpt>
      <trkpt lat="44.76292" lon="0.33766">
        <ele>151.54</ele>
        <time>2013-12-26T14:08:10Z</time>
      </trkpt>
      <trkpt lat="44.76276" lon="0.3377">
        <ele>154.43</ele>
        <time>2013-12-26T14:08:27Z</time>
      </trkpt>
      <trkpt lat="44.76261" lon="0.33796">
        <ele>155.87</ele>
        <time>2013-12-26T14:08:51Z</time>
      </trkpt>
      <trkpt lat="44.76259" lon="0.33804">
        <ele>156.35</ele>
        <time>2013-12-26T14:08:57Z</time>
      </trkpt>
      <trkpt lat="44.76246" lon="0.33809">
        <ele>160.68</ele>
        <time>2013-12-26T14:09:21Z</time>
      </trkpt>
      <trkpt lat="44.76229" lon="0.33809">
        <ele>162.6</ele>
        <time>2013-12-26T14:09:43Z</time>
      </trkpt>
      <trkpt lat="44.76227" lon="0.33811">
        <ele>163.08</ele>
        <time>2013-12-26T14:09:59Z</time>
      </trkpt>
      <trkpt lat="44.76216" lon="0.33845">
        <ele>162.6</ele>
        <time>2013-12-26T14:12:31Z</time>
      </trkpt>
      <trkpt lat="44.76214" lon="0.33892">
        <ele>163.56</ele>
        <time>2013-12-26T14:13:09Z</time>
      </trkpt>
      <trkpt lat="44.76212" lon="0.3389">
        <ele>164.52</ele>
        <time>2013-12-26T14:13:26Z</time>
      </trkpt>
      <trkpt lat="44.76214" lon="0.33903">
        <ele>163.56</ele>
        <time>2013-12-26T14:13:53Z</time>
      </trkpt>
      <trkpt lat="44.76255" lon="0.33989">
        <ele>165.48</ele>
        <time>2013-12-26T14:14:57Z</time>
      </trkpt>
      <trkpt lat="44.76266" lon="0.34004">
        <ele>165</ele>
        <time>2013-12-26T14:15:17Z</time>
      </trkpt>
      <trkpt lat="44.76272" lon="0.34028">
        <ele>165.48</ele>
        <time>2013-12-26T14:15:34Z</time>
      </trkpt>
      <trkpt lat="44.76255" lon="0.34036">
        <ele>167.41</ele>
        <time>2013-12-26T14:15:51Z</time>
      </trkpt>
      <trkpt lat="44.76234" lon="0.34041">
        <ele>168.37</ele>
        <time>2013-12-26T14:16:16Z</time>
      </trkpt>
      <trkpt lat="44.76193" lon="0.34058">
        <ele>168.85</ele>
        <time>2013-12-26T14:16:52Z</time>
      </trkpt>
      <trkpt lat="44.7618" lon="0.34073">
        <ele>168.37</ele>
        <time>2013-12-26T14:17:07Z</time>
      </trkpt>
      <trkpt lat="44.76139" lon="0.34109">
        <ele>168.37</ele>
        <time>2013-12-26T14:17:55Z</time>
      </trkpt>
      <trkpt lat="44.76118" lon="0.3412">
        <ele>168.37</ele>
        <time>2013-12-26T14:18:14Z</time>
      </trkpt>
      <trkpt lat="44.76098" lon="0.34137">
        <ele>166.45</ele>
        <time>2013-12-26T14:18:32Z</time>
      </trkpt>
      <trkpt lat="44.76079" lon="0.3415">
        <ele>166.93</ele>
        <time>2013-12-26T14:18:49Z</time>
      </trkpt>
      <trkpt lat="44.76064" lon="0.34163">
        <ele>166.93</ele>
        <time>2013-12-26T14:19:03Z</time>
      </trkpt>
      <trkpt lat="44.76051" lon="0.34167">
        <ele>165.48</ele>
        <time>2013-12-26T14:19:17Z</time>
      </trkpt>
      <trkpt lat="44.76036" lon="0.34128">
        <ele>161.16</ele>
        <time>2013-12-26T14:19:49Z</time>
      </trkpt>
      <trkpt lat="44.76028" lon="0.34122">
        <ele>158.75</ele>
        <time>2013-12-26T14:20:03Z</time>
      </trkpt>
      <trkpt lat="44.76025" lon="0.34118">
        <ele>157.79</ele>
        <time>2013-12-26T14:20:11Z</time>
      </trkpt>
      <trkpt lat="44.76023" lon="0.34098">
        <ele>153.95</ele>
        <time>2013-12-26T14:20:29Z</time>
      </trkpt>
      <trkpt lat="44.76028" lon="0.34083">
        <ele>151.54</ele>
        <time>2013-12-26T14:20:43Z</time>
      </trkpt>
      <trkpt lat="44.7601" lon="0.34056">
        <ele>148.66</ele>
        <time>2013-12-26T14:21:11Z</time>
      </trkpt>
      <trkpt lat="44.76004" lon="0.34036">
        <ele>145.3</ele>
        <time>2013-12-26T14:21:24Z</time>
      </trkpt>
      <trkpt lat="44.75987" lon="0.34">
        <ele>141.93</ele>
        <time>2013-12-26T14:21:53Z</time>
      </trkpt>
      <trkpt lat="44.75978" lon="0.33974">
        <ele>140.97</ele>
        <time>2013-12-26T14:22:09Z</time>
      </trkpt>
      <trkpt lat="44.75968" lon="0.3391">
        <ele>132.32</ele>
        <time>2013-12-26T14:22:50Z</time>
      </trkpt>
      <trkpt lat="44.75961" lon="0.33858">
        <ele>127.51</ele>
        <time>2013-12-26T14:23:22Z</time>
      </trkpt>
      <trkpt lat="44.75959" lon="0.33837">
        <ele>126.07</ele>
        <time>2013-12-26T14:23:36Z</time>
      </trkpt>
      <trkpt lat="44.75963" lon="0.33811">
        <ele>124.63</ele>
        <time>2013-12-26T14:23:51Z</time>
      </trkpt>
      <trkpt lat="44.75985" lon="0.33721">
        <ele>121.26</ele>
        <time>2013-12-26T14:24:49Z</time>
      </trkpt>
      <trkpt lat="44.75987" lon="0.33719">
        <ele>120.3</ele>
        <time>2013-12-26T14:24:53Z</time>
      </trkpt>
      <trkpt lat="44.75991" lon="0.33674">
        <ele>118.86</ele>
        <time>2013-12-26T14:25:21Z</time>
      </trkpt>
      <trkpt lat="44.75993" lon="0.33656">
        <ele>116.94</ele>
        <time>2013-12-26T14:25:33Z</time>
      </trkpt>
      <trkpt lat="44.7598" lon="0.33613">
        <ele>115.01</ele>
        <time>2013-12-26T14:26:00Z</time>
      </trkpt>
      <trkpt lat="44.75978" lon="0.33596">
        <ele>114.05</ele>
        <time>2013-12-26T14:26:13Z</time>
      </trkpt>
      <trkpt lat="44.75983" lon="0.33588">
        <ele>113.57</ele>
        <time>2013-12-26T14:26:27Z</time>
      </trkpt>
      <trkpt lat="44.75976" lon="0.3356">
        <ele>114.53</ele>
        <time>2013-12-26T14:26:45Z</time>
      </trkpt>
      <trkpt lat="44.7597" lon="0.33521">
        <ele>114.05</ele>
        <time>2013-12-26T14:27:08Z</time>
      </trkpt>
      <trkpt lat="44.7597" lon="0.33491">
        <ele>115.98</ele>
        <time>2013-12-26T14:27:27Z</time>
      </trkpt>
      <trkpt lat="44.75946" lon="0.33416">
        <ele>114.53</ele>
        <time>2013-12-26T14:28:29Z</time>
      </trkpt>
      <trkpt lat="44.75952" lon="0.33392">
        <ele>113.09</ele>
        <time>2013-12-26T14:28:44Z</time>
      </trkpt>
      <trkpt lat="44.75955" lon="0.33371">
        <ele>113.57</ele>
        <time>2013-12-26T14:28:59Z</time>
      </trkpt>
      <trkpt lat="44.75946" lon="0.33347">
        <ele>110.21</ele>
        <time>2013-12-26T14:29:15Z</time>
      </trkpt>
      <trkpt lat="44.75927" lon="0.33328">
        <ele>107.81</ele>
        <time>2013-12-26T14:29:32Z</time>
      </trkpt>
      <trkpt lat="44.75914" lon="0.33307">
        <ele>106.84</ele>
        <time>2013-12-26T14:29:53Z</time>
      </trkpt>
      <trkpt lat="44.75905" lon="0.33268">
        <ele>108.29</ele>
        <time>2013-12-26T14:30:17Z</time>
      </trkpt>
      <trkpt lat="44.75888" lon="0.33221">
        <ele>110.69</ele>
        <time>2013-12-26T14:30:46Z</time>
      </trkpt>
      <trkpt lat="44.75852" lon="0.33141">
        <ele>112.13</ele>
        <time>2013-12-26T14:31:39Z</time>
      </trkpt>
      <trkpt lat="44.75817" lon="0.33088">
        <ele>115.5</ele>
        <time>2013-12-26T14:32:16Z</time>
      </trkpt>
      <trkpt lat="44.75802" lon="0.33066">
        <ele>116.94</ele>
        <time>2013-12-26T14:32:33Z</time>
      </trkpt>
      <trkpt lat="44.75785" lon="0.33043">
        <ele>117.42</ele>
        <time>2013-12-26T14:32:53Z</time>
      </trkpt>
      <trkpt lat="44.75768" lon="0.33028">
        <ele>115.5</ele>
        <time>2013-12-26T14:33:09Z</time>
      </trkpt>
      <trkpt lat="44.75749" lon="0.33023">
        <ele>117.42</ele>
        <time>2013-12-26T14:33:24Z</time>
      </trkpt>
      <trkpt lat="44.75731" lon="0.33028">
        <ele>117.9</ele>
        <time>2013-12-26T14:33:39Z</time>
      </trkpt>
      <trkpt lat="44.75704" lon="0.33026">
        <ele>118.86</ele>
        <time>2013-12-26T14:34:01Z</time>
      </trkpt>
      <trkpt lat="44.75697" lon="0.33019">
        <ele>117.9</ele>
        <time>2013-12-26T14:34:07Z</time>
      </trkpt>
      <trkpt lat="44.75686" lon="0.33004">
        <ele>120.3</ele>
        <time>2013-12-26T14:34:24Z</time>
      </trkpt>
      <trkpt lat="44.75641" lon="0.32938">
        <ele>121.26</ele>
        <time>2013-12-26T14:35:16Z</time>
      </trkpt>
      <trkpt lat="44.75628" lon="0.32923">
        <ele>123.67</ele>
        <time>2013-12-26T14:35:33Z</time>
      </trkpt>
      <trkpt lat="44.75626" lon="0.32923">
        <ele>122.22</ele>
        <time>2013-12-26T14:37:23Z</time>
      </trkpt>
      <trkpt lat="44.75626" lon="0.32925">
        <ele>122.71</ele>
        <time>2013-12-26T14:38:08Z</time>
      </trkpt>
      <trkpt lat="44.75622" lon="0.32935">
        <ele>123.67</ele>
        <time>2013-12-26T14:38:53Z</time>
      </trkpt>
      <trkpt lat="44.75626" lon="0.32927">
        <ele>122.22</ele>
        <time>2013-12-26T14:40:05Z</time>
      </trkpt>
      <trkpt lat="44.75601" lon="0.32959">
        <ele>122.71</ele>
        <time>2013-12-26T14:42:25Z</time>
      </trkpt>
      <trkpt lat="44.75596" lon="0.32959">
        <ele>123.19</ele>
        <time>2013-12-26T14:42:32Z</time>
      </trkpt>
      <trkpt lat="44.75586" lon="0.32946">
        <ele>122.71</ele>
        <time>2013-12-26T14:42:47Z</time>
      </trkpt>
      <trkpt lat="44.75556" lon="0.32923">
        <ele>121.74</ele>
        <time>2013-12-26T14:43:19Z</time>
      </trkpt>
      <trkpt lat="44.75506" lon="0.32854">
        <ele>118.38</ele>
        <time>2013-12-26T14:44:18Z</time>
      </trkpt>
      <trkpt lat="44.75405" lon="0.32744">
        <ele>115.98</ele>
        <time>2013-12-26T14:46:09Z</time>
      </trkpt>
      <trkpt lat="44.75384" lon="0.32712">
        <ele>116.46</ele>
        <time>2013-12-26T14:46:36Z</time>
      </trkpt>
      <trkpt lat="44.75367" lon="0.32687">
        <ele>112.61</ele>
        <time>2013-12-26T14:47:01Z</time>
      </trkpt>
      <trkpt lat="44.75356" lon="0.32667">
        <ele>109.25</ele>
        <time>2013-12-26T14:47:18Z</time>
      </trkpt>
      <trkpt lat="44.7535" lon="0.32641">
        <ele>108.77</ele>
        <time>2013-12-26T14:47:35Z</time>
      </trkpt>
      <trkpt lat="44.75347" lon="0.32601">
        <ele>105.4</ele>
        <time>2013-12-26T14:47:59Z</time>
      </trkpt>
      <trkpt lat="44.75341" lon="0.32588">
        <ele>103.96</ele>
        <time>2013-12-26T14:48:11Z</time>
      </trkpt>
      <trkpt lat="44.75335" lon="0.32584">
        <ele>104.44</ele>
        <time>2013-12-26T14:48:17Z</time>
      </trkpt>
      <trkpt lat="44.7533" lon="0.32579">
        <ele>104.92</ele>
        <time>2013-12-26T14:48:28Z</time>
      </trkpt>
      <trkpt lat="44.75326" lon="0.32581">
        <ele>103.96</ele>
        <time>2013-12-26T14:50:06Z</time>
      </trkpt>
      <trkpt lat="44.75307" lon="0.32607">
        <ele>104.44</ele>
        <time>2013-12-26T14:50:26Z</time>
      </trkpt>
      <trkpt lat="44.75285" lon="0.32629">
        <ele>103</ele>
        <time>2013-12-26T14:50:46Z</time>
      </trkpt>
      <trkpt lat="44.75262" lon="0.32644">
        <ele>102.04</ele>
        <time>2013-12-26T14:51:09Z</time>
      </trkpt>
      <trkpt lat="44.75251" lon="0.32646">
        <ele>99.63</ele>
        <time>2013-12-26T14:51:21Z</time>
      </trkpt>
      <trkpt lat="44.75236" lon="0.32644">
        <ele>97.71</ele>
        <time>2013-12-26T14:51:35Z</time>
      </trkpt>
      <trkpt lat="44.75184" lon="0.32596">
        <ele>92.42</ele>
        <time>2013-12-26T14:52:31Z</time>
      </trkpt>
      <trkpt lat="44.75171" lon="0.32588">
        <ele>90.98</ele>
        <time>2013-12-26T14:52:44Z</time>
      </trkpt>
      <trkpt lat="44.75139" lon="0.3259">
        <ele>91.94</ele>
        <time>2013-12-26T14:53:11Z</time>
      </trkpt>
      <trkpt lat="44.75124" lon="0.32586">
        <ele>92.42</ele>
        <time>2013-12-26T14:53:24Z</time>
      </trkpt>
      <trkpt lat="44.75103" lon="0.3259">
        <ele>92.42</ele>
        <time>2013-12-26T14:53:43Z</time>
      </trkpt>
      <trkpt lat="44.75083" lon="0.32592">
        <ele>93.39</ele>
        <time>2013-12-26T14:53:58Z</time>
      </trkpt>
      <trkpt lat="44.75071" lon="0.32588">
        <ele>94.83</ele>
        <time>2013-12-26T14:54:10Z</time>
      </trkpt>
      <trkpt lat="44.75049" lon="0.32588">
        <ele>95.31</ele>
        <time>2013-12-26T14:54:35Z</time>
      </trkpt>
      <trkpt lat="44.7503" lon="0.32581">
        <ele>97.71</ele>
        <time>2013-12-26T14:54:56Z</time>
      </trkpt>
      <trkpt lat="44.75006" lon="0.32564">
        <ele>97.23</ele>
        <time>2013-12-26T14:56:07Z</time>
      </trkpt>
      <trkpt lat="44.74993" lon="0.32556">
        <ele>94.83</ele>
        <time>2013-12-26T14:56:20Z</time>
      </trkpt>
      <trkpt lat="44.74976" lon="0.32564">
        <ele>97.23</ele>
        <time>2013-12-26T14:56:34Z</time>
      </trkpt>
      <trkpt lat="44.74948" lon="0.32566">
        <ele>96.75</ele>
        <time>2013-12-26T14:57:03Z</time>
      </trkpt>
      <trkpt lat="44.74929" lon="0.32573">
        <ele>98.19</ele>
        <time>2013-12-26T14:57:19Z</time>
      </trkpt>
      <trkpt lat="44.74905" lon="0.32581">
        <ele>98.19</ele>
        <time>2013-12-26T14:57:42Z</time>
      </trkpt>
      <trkpt lat="44.74871" lon="0.32599">
        <ele>98.67</ele>
        <time>2013-12-26T14:58:17Z</time>
      </trkpt>
      <trkpt lat="44.74835" lon="0.3262">
        <ele>100.11</ele>
        <time>2013-12-26T14:58:55Z</time>
      </trkpt>
      <trkpt lat="44.74828" lon="0.32629">
        <ele>100.6</ele>
        <time>2013-12-26T14:59:03Z</time>
      </trkpt>
      <trkpt lat="44.74805" lon="0.32648">
        <ele>101.56</ele>
        <time>2013-12-26T14:59:30Z</time>
      </trkpt>
      <trkpt lat="44.74789" lon="0.32652">
        <ele>102.04</ele>
        <time>2013-12-26T14:59:46Z</time>
      </trkpt>
      <trkpt lat="44.74759" lon="0.32669">
        <ele>103</ele>
        <time>2013-12-26T15:00:19Z</time>
      </trkpt>
      <trkpt lat="44.74736" lon="0.32684">
        <ele>102.04</ele>
        <time>2013-12-26T15:00:43Z</time>
      </trkpt>
      <trkpt lat="44.74697" lon="0.32732">
        <ele>103</ele>
        <time>2013-12-26T15:01:30Z</time>
      </trkpt>
      <trkpt lat="44.74654" lon="0.32822">
        <ele>101.08</ele>
        <time>2013-12-26T15:02:39Z</time>
      </trkpt>
      <trkpt lat="44.74611" lon="0.32884">
        <ele>97.71</ele>
        <time>2013-12-26T15:03:30Z</time>
      </trkpt>
      <trkpt lat="44.74581" lon="0.32925">
        <ele>98.19</ele>
        <time>2013-12-26T15:04:06Z</time>
      </trkpt>
      <trkpt lat="44.74577" lon="0.32935">
        <ele>99.63</ele>
        <time>2013-12-26T15:04:13Z</time>
      </trkpt>
      <trkpt lat="44.74553" lon="0.3297">
        <ele>101.08</ele>
        <time>2013-12-26T15:04:44Z</time>
      </trkpt>
      <trkpt lat="44.74545" lon="0.32985">
        <ele>100.11</ele>
        <time>2013-12-26T15:04:54Z</time>
      </trkpt>
      <trkpt lat="44.74547" lon="0.33028">
        <ele>102.04</ele>
        <time>2013-12-26T15:05:30Z</time>
      </trkpt>
      <trkpt lat="44.74558" lon="0.33047">
        <ele>101.56</ele>
        <time>2013-12-26T15:05:43Z</time>
      </trkpt>
      <trkpt lat="44.74566" lon="0.33083">
        <ele>104.92</ele>
        <time>2013-12-26T15:06:11Z</time>
      </trkpt>
      <trkpt lat="44.74594" lon="0.33114">
        <ele>107.81</ele>
        <time>2013-12-26T15:06:47Z</time>
      </trkpt>
      <trkpt lat="44.74605" lon="0.33122">
        <ele>110.69</ele>
        <time>2013-12-26T15:06:59Z</time>
      </trkpt>
      <trkpt lat="44.74611" lon="0.33131">
        <ele>110.21</ele>
        <time>2013-12-26T15:07:16Z</time>
      </trkpt>
      <trkpt lat="44.74618" lon="0.33154">
        <ele>111.65</ele>
        <time>2013-12-26T15:07:38Z</time>
      </trkpt>
      <trkpt lat="44.7462" lon="0.33223">
        <ele>116.46</ele>
        <time>2013-12-26T15:08:30Z</time>
      </trkpt>
      <trkpt lat="44.74622" lon="0.33236">
        <ele>116.94</ele>
        <time>2013-12-26T15:08:39Z</time>
      </trkpt>
      <trkpt lat="44.7462" lon="0.33253">
        <ele>119.82</ele>
        <time>2013-12-26T15:08:53Z</time>
      </trkpt>
      <trkpt lat="44.7462" lon="0.33298">
        <ele>121.26</ele>
        <time>2013-12-26T15:09:20Z</time>
      </trkpt>
      <trkpt lat="44.74622" lon="0.33307">
        <ele>121.26</ele>
        <time>2013-12-26T15:09:25Z</time>
      </trkpt>
      <trkpt lat="44.7462" lon="0.33345">
        <ele>124.15</ele>
        <time>2013-12-26T15:09:51Z</time>
      </trkpt>
      <trkpt lat="44.74618" lon="0.33365">
        <ele>127.51</ele>
        <time>2013-12-26T15:10:05Z</time>
      </trkpt>
      <trkpt lat="44.74618" lon="0.33371">
        <ele>127.03</ele>
        <time>2013-12-26T15:10:09Z</time>
      </trkpt>
      <trkpt lat="44.74609" lon="0.3339">
        <ele>127.99</ele>
        <time>2013-12-26T15:10:23Z</time>
      </trkpt>
      <trkpt lat="44.74586" lon="0.33429">
        <ele>131.84</ele>
        <time>2013-12-26T15:10:58Z</time>
      </trkpt>
      <trkpt lat="44.74579" lon="0.33438">
        <ele>131.84</ele>
        <time>2013-12-26T15:11:09Z</time>
      </trkpt>
      <trkpt lat="44.74575" lon="0.33438">
        <ele>131.36</ele>
        <time>2013-12-26T15:11:14Z</time>
      </trkpt>
      <trkpt lat="44.74573" lon="0.33427">
        <ele>128.95</ele>
        <time>2013-12-26T15:11:30Z</time>
      </trkpt>
      <trkpt lat="44.74568" lon="0.33435">
        <ele>131.36</ele>
        <time>2013-12-26T15:12:09Z</time>
      </trkpt>
      <trkpt lat="44.74558" lon="0.33435">
        <ele>129.92</ele>
        <time>2013-12-26T15:12:23Z</time>
      </trkpt>
      <trkpt lat="44.74558" lon="0.3344">
        <ele>130.88</ele>
        <time>2013-12-26T15:12:37Z</time>
      </trkpt>
      <trkpt lat="44.74556" lon="0.3344">
        <ele>130.4</ele>
        <time>2013-12-26T15:13:33Z</time>
      </trkpt>
      <trkpt lat="44.74551" lon="0.3345">
        <ele>131.36</ele>
        <time>2013-12-26T15:14:53Z</time>
      </trkpt>
      <trkpt lat="44.74549" lon="0.33483">
        <ele>132.8</ele>
        <time>2013-12-26T15:15:13Z</time>
      </trkpt>
      <trkpt lat="44.74534" lon="0.33489">
        <ele>131.36</ele>
        <time>2013-12-26T15:15:31Z</time>
      </trkpt>
      <trkpt lat="44.74515" lon="0.33556">
        <ele>131.36</ele>
        <time>2013-12-26T15:16:13Z</time>
      </trkpt>
      <trkpt lat="44.74513" lon="0.33566">
        <ele>132.8</ele>
        <time>2013-12-26T15:16:21Z</time>
      </trkpt>
      <trkpt lat="44.74502" lon="0.33594">
        <ele>134.24</ele>
        <time>2013-12-26T15:16:42Z</time>
      </trkpt>
      <trkpt lat="44.745" lon="0.3362">
        <ele>134.72</ele>
        <time>2013-12-26T15:16:59Z</time>
      </trkpt>
      <trkpt lat="44.74523" lon="0.33648">
        <ele>137.61</ele>
        <time>2013-12-26T15:17:29Z</time>
      </trkpt>
      <trkpt lat="44.74517" lon="0.33678">
        <ele>137.61</ele>
        <time>2013-12-26T15:17:48Z</time>
      </trkpt>
      <trkpt lat="44.74504" lon="0.33719">
        <ele>135.68</ele>
        <time>2013-12-26T15:18:15Z</time>
      </trkpt>
      <trkpt lat="44.74504" lon="0.33747">
        <ele>135.68</ele>
        <time>2013-12-26T15:18:31Z</time>
      </trkpt>
      <trkpt lat="44.74498" lon="0.33768">
        <ele>134.72</ele>
        <time>2013-12-26T15:18:44Z</time>
      </trkpt>
      <trkpt lat="44.74478" lon="0.33813">
        <ele>129.43</ele>
        <time>2013-12-26T15:19:14Z</time>
      </trkpt>
      <trkpt lat="44.74459" lon="0.33854">
        <ele>128.47</ele>
        <time>2013-12-26T15:19:42Z</time>
      </trkpt>
      <trkpt lat="44.74399" lon="0.33811">
        <ele>121.74</ele>
        <time>2013-12-26T15:20:36Z</time>
      </trkpt>
      <trkpt lat="44.74386" lon="0.33798">
        <ele>121.74</ele>
        <time>2013-12-26T15:20:51Z</time>
      </trkpt>
      <trkpt lat="44.74382" lon="0.33796">
        <ele>122.22</ele>
        <time>2013-12-26T15:20:55Z</time>
      </trkpt>
      <trkpt lat="44.74375" lon="0.33796">
        <ele>121.26</ele>
        <time>2013-12-26T15:20:59Z</time>
      </trkpt>
      <trkpt lat="44.74373" lon="0.33817">
        <ele>119.82</ele>
        <time>2013-12-26T15:21:12Z</time>
      </trkpt>
      <trkpt lat="44.74377" lon="0.33884">
        <ele>120.78</ele>
        <time>2013-12-26T15:21:54Z</time>
      </trkpt>
      <trkpt lat="44.74375" lon="0.33905">
        <ele>122.71</ele>
        <time>2013-12-26T15:22:09Z</time>
      </trkpt>
      <trkpt lat="44.74386" lon="0.33993">
        <ele>128.95</ele>
        <time>2013-12-26T15:23:06Z</time>
      </trkpt>
      <trkpt lat="44.74393" lon="0.34028">
        <ele>132.32</ele>
        <time>2013-12-26T15:23:35Z</time>
      </trkpt>
      <trkpt lat="44.74401" lon="0.3409">
        <ele>142.41</ele>
        <time>2013-12-26T15:24:26Z</time>
      </trkpt>
      <trkpt lat="44.74401" lon="0.34105">
        <ele>142.41</ele>
        <time>2013-12-26T15:25:10Z</time>
      </trkpt>
      <trkpt lat="44.74384" lon="0.34109">
        <ele>144.82</ele>
        <time>2013-12-26T15:25:29Z</time>
      </trkpt>
      <trkpt lat="44.74362" lon="0.34109">
        <ele>144.82</ele>
        <time>2013-12-26T15:25:48Z</time>
      </trkpt>
      <trkpt lat="44.74328" lon="0.34116">
        <ele>143.85</ele>
        <time>2013-12-26T15:26:23Z</time>
      </trkpt>
      <trkpt lat="44.74307" lon="0.34103">
        <ele>140.01</ele>
        <time>2013-12-26T15:26:52Z</time>
      </trkpt>
      <trkpt lat="44.74302" lon="0.34105">
        <ele>140.01</ele>
        <time>2013-12-26T15:26:57Z</time>
      </trkpt>
      <trkpt lat="44.74298" lon="0.34109">
        <ele>140.49</ele>
        <time>2013-12-26T15:27:00Z</time>
      </trkpt>
      <trkpt lat="44.74298" lon="0.34128">
        <ele>141.45</ele>
        <time>2013-12-26T15:27:12Z</time>
      </trkpt>
      <trkpt lat="44.74298" lon="0.34143">
        <ele>143.85</ele>
        <time>2013-12-26T15:27:23Z</time>
      </trkpt>
      <trkpt lat="44.743" lon="0.34143">
        <ele>143.37</ele>
        <time>2013-12-26T15:27:24Z</time>
      </trkpt>
      <trkpt lat="44.74305" lon="0.34176">
        <ele>148.66</ele>
        <time>2013-12-26T15:27:49Z</time>
      </trkpt>
      <trkpt lat="44.74311" lon="0.34199">
        <ele>150.58</ele>
        <time>2013-12-26T15:28:12Z</time>
      </trkpt>
      <trkpt lat="44.74313" lon="0.34201">
        <ele>152.03</ele>
        <time>2013-12-26T15:28:26Z</time>
      </trkpt>
      <trkpt lat="44.74315" lon="0.34216">
        <ele>155.87</ele>
        <time>2013-12-26T15:28:39Z</time>
      </trkpt>
      <trkpt lat="44.74309" lon="0.34253">
        <ele>158.75</ele>
        <time>2013-12-26T15:29:09Z</time>
      </trkpt>
      <trkpt lat="44.74311" lon="0.34279">
        <ele>160.68</ele>
        <time>2013-12-26T15:29:28Z</time>
      </trkpt>
      <trkpt lat="44.74313" lon="0.34287">
        <ele>161.64</ele>
        <time>2013-12-26T15:29:43Z</time>
      </trkpt>
      <trkpt lat="44.74266" lon="0.34341">
        <ele>161.64</ele>
        <time>2013-12-26T15:32:39Z</time>
      </trkpt>
      <trkpt lat="44.7424" lon="0.34375">
        <ele>160.2</ele>
        <time>2013-12-26T15:33:08Z</time>
      </trkpt>
      <trkpt lat="44.74225" lon="0.34397">
        <ele>160.68</ele>
        <time>2013-12-26T15:33:26Z</time>
      </trkpt>
      <trkpt lat="44.74214" lon="0.34414">
        <ele>158.27</ele>
        <time>2013-12-26T15:33:41Z</time>
      </trkpt>
      <trkpt lat="44.74204" lon="0.34425">
        <ele>155.87</ele>
        <time>2013-12-26T15:33:53Z</time>
      </trkpt>
      <trkpt lat="44.74169" lon="0.34429">
        <ele>154.43</ele>
        <time>2013-12-26T15:34:24Z</time>
      </trkpt>
      <trkpt lat="44.74141" lon="0.34429">
        <ele>153.47</ele>
        <time>2013-12-26T15:34:52Z</time>
      </trkpt>
      <trkpt lat="44.74137" lon="0.34433">
        <ele>152.99</ele>
        <time>2013-12-26T15:35:15Z</time>
      </trkpt>
      <trkpt lat="44.74126" lon="0.34431">
        <ele>153.95</ele>
        <time>2013-12-26T15:35:26Z</time>
      </trkpt>
      <trkpt lat="44.74109" lon="0.34425">
        <ele>152.99</ele>
        <time>2013-12-26T15:35:40Z</time>
      </trkpt>
      <trkpt lat="44.74096" lon="0.34427">
        <ele>154.91</ele>
        <time>2013-12-26T15:35:52Z</time>
      </trkpt>
      <trkpt lat="44.74088" lon="0.34431">
        <ele>154.91</ele>
        <time>2013-12-26T15:36:00Z</time>
      </trkpt>
      <trkpt lat="44.74073" lon="0.34455">
        <ele>156.83</ele>
        <time>2013-12-26T15:36:24Z</time>
      </trkpt>
      <trkpt lat="44.74064" lon="0.3445">
        <ele>155.39</ele>
        <time>2013-12-26T15:36:37Z</time>
      </trkpt>
      <trkpt lat="44.74053" lon="0.34461">
        <ele>153.95</ele>
        <time>2013-12-26T15:36:49Z</time>
      </trkpt>
      <trkpt lat="44.74056" lon="0.3451">
        <ele>152.03</ele>
        <time>2013-12-26T15:37:22Z</time>
      </trkpt>
      <trkpt lat="44.74047" lon="0.34538">
        <ele>150.1</ele>
        <time>2013-12-26T15:39:27Z</time>
      </trkpt>
      <trkpt lat="44.74051" lon="0.34547">
        <ele>151.06</ele>
        <time>2013-12-26T15:40:12Z</time>
      </trkpt>
      <trkpt lat="44.7406" lon="0.34588">
        <ele>154.43</ele>
        <time>2013-12-26T15:41:26Z</time>
      </trkpt>
      <trkpt lat="44.7406" lon="0.34635">
        <ele>153.95</ele>
        <time>2013-12-26T15:41:54Z</time>
      </trkpt>
      <trkpt lat="44.74058" lon="0.34682">
        <ele>149.14</ele>
        <time>2013-12-26T15:42:23Z</time>
      </trkpt>
      <trkpt lat="44.74064" lon="0.34697">
        <ele>149.14</ele>
        <time>2013-12-26T15:42:45Z</time>
      </trkpt>
      <trkpt lat="44.74086" lon="0.34708">
        <ele>150.58</ele>
        <time>2013-12-26T15:43:49Z</time>
      </trkpt>
      <trkpt lat="44.74099" lon="0.34721">
        <ele>148.66</ele>
        <time>2013-12-26T15:44:02Z</time>
      </trkpt>
      <trkpt lat="44.74099" lon="0.34736">
        <ele>147.7</ele>
        <time>2013-12-26T15:44:11Z</time>
      </trkpt>
      <trkpt lat="44.74103" lon="0.34749">
        <ele>145.3</ele>
        <time>2013-12-26T15:44:24Z</time>
      </trkpt>
      <trkpt lat="44.74107" lon="0.34774">
        <ele>142.41</ele>
        <time>2013-12-26T15:44:39Z</time>
      </trkpt>
      <trkpt lat="44.74111" lon="0.34781">
        <ele>141.45</ele>
        <time>2013-12-26T15:44:48Z</time>
      </trkpt>
      <trkpt lat="44.74116" lon="0.34796">
        <ele>141.45</ele>
        <time>2013-12-26T15:44:57Z</time>
      </trkpt>
      <trkpt lat="44.74116" lon="0.34824">
        <ele>140.01</ele>
        <time>2013-12-26T15:45:20Z</time>
      </trkpt>
      <trkpt lat="44.7412" lon="0.34832">
        <ele>139.05</ele>
        <time>2013-12-26T15:45:31Z</time>
      </trkpt>
      <trkpt lat="44.74137" lon="0.3483">
        <ele>137.61</ele>
        <time>2013-12-26T15:45:48Z</time>
      </trkpt>
      <trkpt lat="44.74156" lon="0.3483">
        <ele>136.16</ele>
        <time>2013-12-26T15:46:05Z</time>
      </trkpt>
      <trkpt lat="44.74176" lon="0.34834">
        <ele>133.76</ele>
        <time>2013-12-26T15:46:24Z</time>
      </trkpt>
      <trkpt lat="44.74195" lon="0.34834">
        <ele>132.8</ele>
        <time>2013-12-26T15:46:40Z</time>
      </trkpt>
      <trkpt lat="44.74257" lon="0.3483">
        <ele>131.36</ele>
        <time>2013-12-26T15:47:36Z</time>
      </trkpt>
      <trkpt lat="44.74305" lon="0.34837">
        <ele>128.47</ele>
        <time>2013-12-26T15:48:19Z</time>
      </trkpt>
      <trkpt lat="44.74317" lon="0.34841">
        <ele>127.51</ele>
        <time>2013-12-26T15:48:32Z</time>
      </trkpt>
      <trkpt lat="44.74354" lon="0.34841">
        <ele>125.59</ele>
        <time>2013-12-26T15:49:10Z</time>
      </trkpt>
      <trkpt lat="44.74369" lon="0.3483">
        <ele>125.59</ele>
        <time>2013-12-26T15:49:26Z</time>
      </trkpt>
      <trkpt lat="44.74386" lon="0.34824">
        <ele>124.15</ele>
        <time>2013-12-26T15:49:42Z</time>
      </trkpt>
      <trkpt lat="44.74393" lon="0.34826">
        <ele>124.15</ele>
        <time>2013-12-26T15:49:47Z</time>
      </trkpt>
      <trkpt lat="44.74412" lon="0.34817">
        <ele>124.15</ele>
        <time>2013-12-26T15:50:06Z</time>
      </trkpt>
      <trkpt lat="44.74429" lon="0.34802">
        <ele>124.63</ele>
        <time>2013-12-26T15:50:20Z</time>
      </trkpt>
      <trkpt lat="44.74442" lon="0.34798">
        <ele>126.55</ele>
        <time>2013-12-26T15:50:32Z</time>
      </trkpt>
      <trkpt lat="44.74448" lon="0.34796">
        <ele>126.07</ele>
        <time>2013-12-26T15:50:40Z</time>
      </trkpt>
      <trkpt lat="44.74491" lon="0.34768">
        <ele>129.43</ele>
        <time>2013-12-26T15:51:22Z</time>
      </trkpt>
      <trkpt lat="44.74504" lon="0.34764">
        <ele>129.92</ele>
        <time>2013-12-26T15:51:35Z</time>
      </trkpt>
      <trkpt lat="44.74528" lon="0.34749">
        <ele>130.4</ele>
        <time>2013-12-26T15:51:56Z</time>
      </trkpt>
      <trkpt lat="44.74558" lon="0.34734">
        <ele>131.84</ele>
        <time>2013-12-26T15:52:37Z</time>
      </trkpt>
      <trkpt lat="44.7456" lon="0.34731">
        <ele>133.76</ele>
        <time>2013-12-26T15:52:40Z</time>
      </trkpt>
      <trkpt lat="44.74577" lon="0.34721">
        <ele>134.24</ele>
        <time>2013-12-26T15:53:20Z</time>
      </trkpt>
      <trkpt lat="44.74588" lon="0.34712">
        <ele>137.13</ele>
        <time>2013-12-26T15:53:32Z</time>
      </trkpt>
      <trkpt lat="44.74594" lon="0.3471">
        <ele>135.2</ele>
        <time>2013-12-26T15:53:46Z</time>
      </trkpt>
      <trkpt lat="44.74601" lon="0.34701">
        <ele>136.64</ele>
        <time>2013-12-26T15:53:59Z</time>
      </trkpt>
      <trkpt lat="44.74635" lon="0.34695">
        <ele>139.05</ele>
        <time>2013-12-26T15:54:36Z</time>
      </trkpt>
      <trkpt lat="44.74652" lon="0.34701">
        <ele>140.97</ele>
        <time>2013-12-26T15:54:58Z</time>
      </trkpt>
      <trkpt lat="44.74674" lon="0.34704">
        <ele>139.05</ele>
        <time>2013-12-26T15:55:21Z</time>
      </trkpt>
      <trkpt lat="44.74704" lon="0.34684">
        <ele>138.57</ele>
        <time>2013-12-26T15:55:48Z</time>
      </trkpt>
      <trkpt lat="44.74738" lon="0.34652">
        <ele>134.72</ele>
        <time>2013-12-26T15:56:21Z</time>
      </trkpt>
      <trkpt lat="44.74768" lon="0.34631">
        <ele>132.32</ele>
        <time>2013-12-26T15:56:47Z</time>
      </trkpt>
      <trkpt lat="44.74805" lon="0.34607">
        <ele>131.36</ele>
        <time>2013-12-26T15:57:25Z</time>
      </trkpt>
      <trkpt lat="44.74856" lon="0.34575">
        <ele>132.8</ele>
        <time>2013-12-26T15:58:20Z</time>
      </trkpt>
      <trkpt lat="44.74899" lon="0.34545">
        <ele>136.64</ele>
        <time>2013-12-26T15:59:10Z</time>
      </trkpt>
      <trkpt lat="44.74914" lon="0.3453">
        <ele>139.05</ele>
        <time>2013-12-26T15:59:57Z</time>
      </trkpt>
      <trkpt lat="44.7494" lon="0.34519">
        <ele>142.41</ele>
        <time>2013-12-26T16:00:34Z</time>
      </trkpt>
      <trkpt lat="44.74995" lon="0.34483">
        <ele>152.51</ele>
        <time>2013-12-26T16:01:39Z</time>
      </trkpt>
      <trkpt lat="44.75034" lon="0.34461">
        <ele>161.64</ele>
        <time>2013-12-26T16:02:29Z</time>
      </trkpt>
      <trkpt lat="44.75053" lon="0.34446">
        <ele>164.52</ele>
        <time>2013-12-26T16:02:51Z</time>
      </trkpt>
      <trkpt lat="44.7506" lon="0.34437">
        <ele>165</ele>
        <time>2013-12-26T16:03:01Z</time>
      </trkpt>
      <trkpt lat="44.75103" lon="0.34418">
        <ele>166.93</ele>
        <time>2013-12-26T16:03:46Z</time>
      </trkpt>
      <trkpt lat="44.75107" lon="0.3441">
        <ele>167.41</ele>
        <time>2013-12-26T16:04:02Z</time>
      </trkpt>
      <trkpt lat="44.75111" lon="0.34384">
        <ele>167.41</ele>
        <time>2013-12-26T16:04:38Z</time>
      </trkpt>
      <trkpt lat="44.75124" lon="0.34386">
        <ele>168.85</ele>
        <time>2013-12-26T16:04:55Z</time>
      </trkpt>
      <trkpt lat="44.75124" lon="0.34386">
        <ele>167.41</ele>
        <time>2013-12-26T16:04:56Z</time>
      </trkpt>
      <trkpt lat="44.75109" lon="0.3438">
        <ele>166.93</ele>
        <time>2013-12-26T16:05:14Z</time>
      </trkpt>
      <trkpt lat="44.75109" lon="0.34367">
        <ele>167.41</ele>
        <time>2013-12-26T16:05:23Z</time>
      </trkpt>
      <trkpt lat="44.75098" lon="0.34354">
        <ele>167.41</ele>
        <time>2013-12-26T16:05:38Z</time>
      </trkpt>
      <trkpt lat="44.75086" lon="0.34304">
        <ele>167.89</ele>
        <time>2013-12-26T16:06:09Z</time>
      </trkpt>
      <trkpt lat="44.75077" lon="0.34296">
        <ele>166.45</ele>
        <time>2013-12-26T16:06:23Z</time>
      </trkpt>
      <trkpt lat="44.75071" lon="0.34279">
        <ele>166.45</ele>
        <time>2013-12-26T16:06:44Z</time>
      </trkpt>
      <trkpt lat="44.75051" lon="0.34204">
        <ele>166.45</ele>
        <time>2013-12-26T16:07:45Z</time>
      </trkpt>
      <trkpt lat="44.75049" lon="0.34193">
        <ele>167.89</ele>
        <time>2013-12-26T16:07:52Z</time>
      </trkpt>
      <trkpt lat="44.75045" lon="0.34184">
        <ele>165</ele>
        <time>2013-12-26T16:07:58Z</time>
      </trkpt>
      <trkpt lat="44.75036" lon="0.34161">
        <ele>167.41</ele>
        <time>2013-12-26T16:08:14Z</time>
      </trkpt>
      <trkpt lat="44.75023" lon="0.34139">
        <ele>166.93</ele>
        <time>2013-12-26T16:08:31Z</time>
      </trkpt>
      <trkpt lat="44.75015" lon="0.34128">
        <ele>165.48</ele>
        <time>2013-12-26T16:08:43Z</time>
      </trkpt>
      <trkpt lat="44.75008" lon="0.34116">
        <ele>165.96</ele>
        <time>2013-12-26T16:08:57Z</time>
      </trkpt>
      <trkpt lat="44.75004" lon="0.34094">
        <ele>164.52</ele>
        <time>2013-12-26T16:09:35Z</time>
      </trkpt>
      <trkpt lat="44.74998" lon="0.34105">
        <ele>164.04</ele>
        <time>2013-12-26T16:12:23Z</time>
      </trkpt>
      <trkpt lat="44.74998" lon="0.34098">
        <ele>165</ele>
        <time>2013-12-26T16:13:20Z</time>
      </trkpt>
      <trkpt lat="44.75" lon="0.34105">
        <ele>165</ele>
        <time>2013-12-26T16:13:37Z</time>
      </trkpt>
      <trkpt lat="44.75" lon="0.34101">
        <ele>165.96</ele>
        <time>2013-12-26T16:14:24Z</time>
      </trkpt>
    </trkseg>
  </trk>
</gpx>